ADDS METAR Data INFO
IDs: Format: Raw Decoded Include TAF

Data at: 1251 UTC 19 Oct 2017

KPDK 191153Z 00000KT 10SM CLR 07/05 A3030 RMK AO2 SLP262 T00670050 10094 20050 53006
KPDK 191053Z 00000KT 10SM CLR 06/04 A3029 RMK AO2 SLP258 T00560044
KPDK 190953Z AUTO 00000KT 10SM CLR 06/04 A3028 RMK AO2 SLP253 T00610044
KPDK 190853Z AUTO 00000KT 10SM CLR 07/06 A3028 RMK AO2 SLP251 T00720056 55002
KPDK 190753Z AUTO 06003KT 10SM CLR 08/06 A3028 RMK AO2 SLP251 T00830061
KPDK 190653Z AUTO 03003KT 10SM CLR 07/06 A3028 RMK AO2 SLP254 T00720056
KPDK 190553Z AUTO 00000KT 10SM CLR 08/06 A3028 RMK AO2 SLP254 T00780056 10144 20078 58007
KPDK 190453Z AUTO 07003KT 10SM CLR 11/07 A3029 RMK AO2 SLP257 T01060067 402170050
KPDK 190353Z AUTO 08003KT 10SM CLR 11/07 A3030 RMK AO2 SLP260 T01060067
KPDK 190253Z AUTO 00000KT 10SM CLR 09/06 A3031 RMK AO2 SLP264 T00940061 53009
KPDK 190153Z 00000KT 10SM CLR 10/06 A3030 RMK AO2 SLP262 T01000061
KPDK 190053Z 00000KT 10SM CLR 12/07 A3029 RMK AO2 SLP259 T01220067
KPDK 182353Z 10003KT 10SM CLR 14/07 A3028 RMK AO2 SLP257 T01390067 10217 20139 53006
KPDK 182253Z 10003KT 10SM CLR 17/06 A3027 RMK AO2 SLP250 T01720061
KPDK 182153Z 11005KT 10SM CLR 20/05 A3026 RMK AO2 SLP246 T02000050
KPDK 182053Z VRB04KT 10SM CLR 21/04 A3026 RMK AO2 SLP245 T02110044 56017
KPDK 181953Z 10007KT 10SM CLR 21/04 A3027 RMK AO2 SLP249 T02060044
KPDK 181853Z 10SM CLR 19/05 A3029 RMK AO2 SLP255 T01940050
KPDK 181753Z VRB03KT 10SM CLR 19/04 A3031 RMK AO2 SLP264 T01940044 10194 20067 58017
KPDK 181711Z VRB06KT 10SM FEW002 18/05 A3033 RMK AO2 T01830050 $
KPDK 181653Z VRB05KT 10SM CLR 18/06 A3034 RMK AO2 SLP273 T01830056
KPDK 181553Z 11007KT 080V140 10SM CLR 17/06 A3036 RMK AO2 SLP281 T01670056
KPDK 181453Z VRB03KT 10SM CLR 14/06 A3036 RMK AO2 SLP282 T01440061 51012
KPDK 181353Z VRB03KT 10SM CLR 12/06 A3035 RMK AO2 SLP281 T01220061
KPDK 181253Z 06004KT 10SM CLR 10/07 A3035 RMK AO2 SLP278 T01000067
KPDK 181153Z 00000KT 10SM CLR 07/05 A3033 RMK AO2 SLP273 T00720050 10089 20050 51013
KPDK 181053Z 00000KT 10SM CLR 07/05 A3032 RMK AO2 SLP268 T00670050
KPDK 180953Z AUTO 09003KT 10SM CLR 08/06 A3030 RMK AO2 SLP259 T00780056
KPDK 180853Z AUTO 09003KT 10SM CLR 09/06 A3029 RMK AO2 SLP255 T00890056 55002
KPDK 180753Z AUTO 00000KT 10SM CLR 06/05 A3029 RMK AO2 SLP255 T00610050
KPDK 180653Z AUTO 00000KT 10SM CLR 07/06 A3029 RMK AO2 SLP258 T00670056
KPDK 180553Z AUTO 00000KT 10SM CLR 08/06 A3030 RMK AO2 SLP258 T00830056 10150 20072 57002
KPDK 180453Z AUTO 00000KT 10SM CLR 08/06 A3030 RMK AO2 SLP260 T00830061 402060078
KPDK 180353Z AUTO 00000KT 10SM CLR 09/06 A3030 RMK AO2 SLP260 T00890061
KPDK 180253Z AUTO 09003KT 10SM CLR 11/06 A3030 RMK AO2 SLP260 T01110061 53018
KPDK 180153Z 10003KT 10SM CLR 11/07 A3028 RMK AO2 SLP254 T01060067
KPDK 180053Z 00000KT 10SM CLR 12/07 A3026 RMK AO2 SLP250 T01170067